createdAt,value
2017-12-21T00:00:03.515Z,7.93
2017-12-21T00:01:03.530Z,8.00
2017-12-21T00:02:03.544Z,7.95
2017-12-21T00:03:03.558Z,7.95
2017-12-21T00:04:03.575Z,7.93
2017-12-21T00:05:03.586Z,7.97
2017-12-21T00:06:03.602Z,8.00
2017-12-21T00:07:03.618Z,7.92
2017-12-21T00:08:03.629Z,7.92
2017-12-21T00:09:03.949Z,7.95
2017-12-21T00:10:03.659Z,7.93
2017-12-21T00:11:03.673Z,7.92
2017-12-21T00:12:03.686Z,8.04
2017-12-21T00:13:03.707Z,8.02
2017-12-21T00:14:03.715Z,7.98
2017-12-21T00:15:03.730Z,7.98
2017-12-21T00:16:03.747Z,7.90
2017-12-21T00:17:03.758Z,7.85
2017-12-21T00:18:03.777Z,8.00
2017-12-21T00:19:03.790Z,7.98
2017-12-21T00:20:03.806Z,7.98
2017-12-21T00:21:03.815Z,8.00
2017-12-21T00:22:03.831Z,8.00
2017-12-21T00:23:03.844Z,8.02
2017-12-21T00:24:03.859Z,7.93
2017-12-21T00:25:03.872Z,8.00
2017-12-21T00:26:03.888Z,7.98
2017-12-21T00:27:03.907Z,8.00
2017-12-21T00:28:03.977Z,8.05
2017-12-21T00:29:03.934Z,8.00
2017-12-21T00:30:03.946Z,8.02
2017-12-21T00:31:03.958Z,7.95
2017-12-21T00:32:03.974Z,7.98
2017-12-21T00:33:03.988Z,7.98
2017-12-21T00:34:04.002Z,7.97
2017-12-21T00:35:04.019Z,8.00
2017-12-21T00:36:04.035Z,8.10
2017-12-21T00:37:04.053Z,8.07
2017-12-21T00:38:04.064Z,8.00
2017-12-21T00:39:04.077Z,8.04
2017-12-21T00:40:04.094Z,8.05
2017-12-21T00:41:04.110Z,8.00
2017-12-21T00:42:04.121Z,8.08
2017-12-21T00:43:04.135Z,8.04
2017-12-21T00:44:04.149Z,8.08
2017-12-21T00:45:04.165Z,8.02
2017-12-21T00:46:04.178Z,8.02
2017-12-21T00:47:04.192Z,8.00
2017-12-21T00:48:04.211Z,8.07
2017-12-21T00:49:04.226Z,8.04
2017-12-21T00:50:04.245Z,7.97
2017-12-21T00:51:04.253Z,8.04
2017-12-21T00:52:04.264Z,8.08
2017-12-21T00:53:04.279Z,8.04
2017-12-21T00:54:04.293Z,8.07
2017-12-21T00:55:04.306Z,8.11
2017-12-21T00:56:04.319Z,8.07
2017-12-21T00:57:04.338Z,7.95
2017-12-21T00:58:04.350Z,8.00
2017-12-21T00:59:04.364Z,8.07
2017-12-21T01:00:04.379Z,8.01
2017-12-21T01:02:04.418Z,8.01
2017-12-21T01:03:04.422Z,8.05
2017-12-21T01:04:04.437Z,8.02
2017-12-21T01:05:04.448Z,8.07
2017-12-21T01:06:04.465Z,8.07
2017-12-21T01:07:04.477Z,8.05
2017-12-21T01:08:04.492Z,8.07
2017-12-21T01:09:04.518Z,8.02
2017-12-21T01:10:04.522Z,8.05
2017-12-21T01:11:04.538Z,8.02
2017-12-21T01:12:04.550Z,8.02
2017-12-21T01:13:04.566Z,8.00
2017-12-21T01:14:04.583Z,8.00
2017-12-21T01:15:04.593Z,8.02
2017-12-21T01:16:04.636Z,8.02
2017-12-21T01:17:04.621Z,8.05
2017-12-21T01:18:04.640Z,8.15
2017-12-21T01:19:04.653Z,8.07
2017-12-21T01:20:04.668Z,8.15
2017-12-21T01:21:04.685Z,8.11
2017-12-21T01:22:04.695Z,8.05
2017-12-21T01:23:04.708Z,8.20
2017-12-21T01:24:04.723Z,8.05
2017-12-21T01:25:04.738Z,8.16
2017-12-21T01:26:04.751Z,8.22
2017-12-21T01:27:04.765Z,8.18
2017-12-21T01:28:04.782Z,8.04
2017-12-21T01:29:04.796Z,8.10
2017-12-21T01:30:04.810Z,8.08
2017-12-21T01:31:04.829Z,8.08
2017-12-21T01:32:04.840Z,8.19
2017-12-21T01:33:04.852Z,8.10
2017-12-21T01:34:04.868Z,8.19
2017-12-21T01:35:04.882Z,8.08
2017-12-21T01:36:04.895Z,8.16
2017-12-21T01:37:04.910Z,8.20
2017-12-21T01:38:04.927Z,8.11
2017-12-21T01:39:04.938Z,8.15
2017-12-21T01:40:04.951Z,8.08
2017-12-21T01:41:04.969Z,8.12
2017-12-21T01:42:04.982Z,8.11
2017-12-21T01:43:04.995Z,8.20
2017-12-21T01:44:05.010Z,8.10
2017-12-21T01:45:05.025Z,8.18
2017-12-21T01:46:05.040Z,8.19
2017-12-21T01:47:05.053Z,8.25
2017-12-21T01:48:05.067Z,8.18
2017-12-21T01:49:05.085Z,8.16
2017-12-21T01:50:05.096Z,8.12
2017-12-21T01:51:05.111Z,8.22
2017-12-21T01:52:05.127Z,8.18
2017-12-21T01:53:05.140Z,8.15
2017-12-21T01:54:05.155Z,8.12
2017-12-21T01:55:05.169Z,8.08
2017-12-21T01:56:05.182Z,8.08
2017-12-21T01:57:05.199Z,8.08
2017-12-21T01:58:05.216Z,8.11
2017-12-21T01:59:05.226Z,8.18
2017-12-21T02:00:05.234Z,8.07
2017-12-21T02:01:05.247Z,8.08
2017-12-21T02:02:05.261Z,8.15
2017-12-21T02:03:05.274Z,8.20
2017-12-21T02:04:05.289Z,8.18
2017-12-21T02:05:05.307Z,8.12
2017-12-21T02:06:05.319Z,8.07
2017-12-21T02:07:05.331Z,8.07
2017-12-21T02:08:05.353Z,8.23
2017-12-21T02:09:05.361Z,8.08
2017-12-21T02:10:05.375Z,8.15
2017-12-21T02:11:05.404Z,8.20
2017-12-21T02:12:05.404Z,8.18
2017-12-21T02:13:05.419Z,8.16
2017-12-21T02:14:05.434Z,8.19
2017-12-21T02:15:05.447Z,8.18
2017-12-21T02:16:05.459Z,8.12
2017-12-21T02:17:05.479Z,8.16
2017-12-21T02:18:05.495Z,8.16
2017-12-21T02:19:05.504Z,8.16
2017-12-21T02:20:05.534Z,8.23
2017-12-21T02:21:05.536Z,8.20
2017-12-21T02:22:05.546Z,8.16
2017-12-21T02:23:05.559Z,8.16
2017-12-21T02:24:05.574Z,8.25
2017-12-21T02:25:05.589Z,8.26
2017-12-21T02:26:05.606Z,8.18
2017-12-21T02:27:05.616Z,8.20
2017-12-21T02:28:05.631Z,8.22
2017-12-21T02:29:05.645Z,8.25
2017-12-21T02:30:05.660Z,8.28
2017-12-21T02:31:05.674Z,8.16
2017-12-21T02:32:05.690Z,8.22
2017-12-21T02:33:05.710Z,8.30
2017-12-21T02:34:05.720Z,8.22
2017-12-21T02:35:05.739Z,8.25
2017-12-21T02:36:05.743Z,8.25
2017-12-21T02:37:05.767Z,8.36
2017-12-21T02:38:05.774Z,8.18
2017-12-21T02:39:05.785Z,8.25
2017-12-21T02:40:05.903Z,8.25
2017-12-21T02:41:05.833Z,8.26
2017-12-21T02:42:05.830Z,8.25
2017-12-21T02:43:05.864Z,8.23
2017-12-21T02:44:05.857Z,8.25
2017-12-21T02:45:05.876Z,8.23
2017-12-21T02:46:05.886Z,8.22
2017-12-21T02:47:05.905Z,8.20
2017-12-21T02:48:05.916Z,8.28
2017-12-21T02:49:05.932Z,8.28
2017-12-21T02:50:05.943Z,8.28
2017-12-21T02:51:05.962Z,8.36
2017-12-21T02:52:05.972Z,8.26
2017-12-21T02:53:05.984Z,8.38
2017-12-21T02:54:06.001Z,8.30
2017-12-21T02:55:06.014Z,8.37
2017-12-21T02:56:06.028Z,8.33
2017-12-21T02:57:06.047Z,8.37
2017-12-21T02:58:06.057Z,8.37
2017-12-21T02:59:06.072Z,8.40
2017-12-21T03:00:06.085Z,8.34
2017-12-21T03:01:06.099Z,8.37
2017-12-21T03:02:06.114Z,8.36
2017-12-21T03:03:06.128Z,8.33
2017-12-21T03:04:06.147Z,8.36
2017-12-21T03:05:06.158Z,8.33
2017-12-21T03:06:06.177Z,8.28
2017-12-21T03:07:06.186Z,8.20
2017-12-21T03:08:06.201Z,8.28
2017-12-21T03:09:06.215Z,8.18
2017-12-21T03:10:06.230Z,8.22
2017-12-21T03:11:06.244Z,8.19
2017-12-21T03:12:06.258Z,8.34
2017-12-21T03:13:06.273Z,8.38
2017-12-21T03:14:06.292Z,8.33
2017-12-21T03:15:06.301Z,8.30
2017-12-21T03:16:06.315Z,8.33
2017-12-21T03:17:06.336Z,8.37
2017-12-21T03:18:06.345Z,8.29
2017-12-21T03:19:06.359Z,8.33
2017-12-21T03:20:06.374Z,8.29
2017-12-21T03:21:06.389Z,8.38
2017-12-21T03:22:06.403Z,8.38
2017-12-21T03:23:06.416Z,8.33
2017-12-21T03:24:06.429Z,8.37
2017-12-21T03:25:06.447Z,8.38
2017-12-21T03:26:06.460Z,8.36
2017-12-21T03:27:06.473Z,8.36
2017-12-21T03:28:06.489Z,8.41
2017-12-21T03:29:06.505Z,8.37
2017-12-21T03:30:06.519Z,8.33
2017-12-21T03:31:06.536Z,8.36
2017-12-21T03:32:06.554Z,8.30
2017-12-21T03:33:06.564Z,8.33
2017-12-21T03:34:06.576Z,8.38
2017-12-21T03:35:06.588Z,8.38
2017-12-21T03:36:06.605Z,8.28
2017-12-21T03:37:06.619Z,8.37
2017-12-21T03:38:06.633Z,8.29
2017-12-21T03:39:06.647Z,8.30
2017-12-21T03:40:06.664Z,8.28
2017-12-21T03:41:06.676Z,8.36
2017-12-21T03:42:06.691Z,8.34
2017-12-21T03:43:06.703Z,8.40
2017-12-21T03:44:06.721Z,8.36
2017-12-21T03:45:06.733Z,8.34
2017-12-21T03:46:06.747Z,8.36
2017-12-21T03:47:06.763Z,8.26
2017-12-21T03:48:06.775Z,8.37
2017-12-21T03:49:06.790Z,8.37
2017-12-21T03:50:06.803Z,8.34
2017-12-21T03:51:06.821Z,8.36
2017-12-21T03:52:06.834Z,8.29
2017-12-21T03:53:06.846Z,8.28
2017-12-21T03:54:06.861Z,8.28
2017-12-21T03:55:06.874Z,8.29
2017-12-21T03:56:06.890Z,8.30
2017-12-21T03:57:06.905Z,8.29
2017-12-21T03:58:06.921Z,8.34
2017-12-21T03:59:06.932Z,8.30
2017-12-21T04:00:06.946Z,8.29
2017-12-21T04:01:06.965Z,8.38
2017-12-21T04:02:06.975Z,8.37
2017-12-21T04:03:06.991Z,8.30
2017-12-21T04:04:07.004Z,8.30
2017-12-21T04:05:07.021Z,8.33
2017-12-21T04:06:07.041Z,8.26
2017-12-21T04:07:07.049Z,8.40
2017-12-21T04:08:07.062Z,8.36
2017-12-21T04:09:07.077Z,8.30
2017-12-21T04:10:07.090Z,8.33
2017-12-21T04:11:07.106Z,8.26
2017-12-21T04:12:07.117Z,8.29
2017-12-21T04:13:07.134Z,8.30
2017-12-21T04:14:07.148Z,8.28
2017-12-21T04:15:07.165Z,8.22
2017-12-21T04:16:07.175Z,8.18
2017-12-21T04:17:07.194Z,8.22
2017-12-21T04:18:07.204Z,8.23
2017-12-21T04:19:07.219Z,8.22
2017-12-21T04:20:07.232Z,8.18
2017-12-21T04:21:07.246Z,8.16
2017-12-21T04:22:07.261Z,8.19
2017-12-21T04:23:07.275Z,8.20
2017-12-21T04:24:07.289Z,8.18
2017-12-21T04:25:07.303Z,8.23
2017-12-21T04:26:07.318Z,8.19
2017-12-21T04:27:07.330Z,8.25
2017-12-21T04:28:07.345Z,8.10
2017-12-21T04:29:07.359Z,8.12
2017-12-21T04:30:07.375Z,8.22
2017-12-21T04:31:07.387Z,8.02
2017-12-21T04:32:07.401Z,8.19
2017-12-21T04:33:07.415Z,8.15
2017-12-21T04:34:07.430Z,8.15
2017-12-21T04:35:07.442Z,8.12
2017-12-21T04:36:07.457Z,8.05
2017-12-21T04:37:07.470Z,8.08
2017-12-21T04:38:07.489Z,8.20
2017-12-21T04:39:07.499Z,8.08
2017-12-21T04:40:07.514Z,8.12
2017-12-21T04:41:07.526Z,8.16
2017-12-21T04:42:07.542Z,8.05
2017-12-21T04:43:07.555Z,8.11
2017-12-21T04:44:07.573Z,8.05
2017-12-21T04:45:07.581Z,8.04
2017-12-21T04:46:07.596Z,8.07
2017-12-21T04:47:07.609Z,8.10
2017-12-21T04:48:07.625Z,8.02
2017-12-21T04:49:07.638Z,8.05
2017-12-21T04:50:07.652Z,8.02
2017-12-21T04:51:07.665Z,8.05
2017-12-21T04:52:07.679Z,8.01
2017-12-21T04:53:07.694Z,8.01
2017-12-21T04:54:07.706Z,8.04
2017-12-21T04:55:07.722Z,8.05
2017-12-21T04:56:07.734Z,8.05
2017-12-21T04:57:07.751Z,8.05
2017-12-21T04:58:07.763Z,8.02
2017-12-21T04:59:07.775Z,8.05
2017-12-21T05:00:07.793Z,7.92
2017-12-21T05:01:07.811Z,8.00
2017-12-21T05:02:07.818Z,7.95
2017-12-21T05:03:07.830Z,8.00
2017-12-21T05:04:07.845Z,7.97
2017-12-21T05:05:07.859Z,8.00
2017-12-21T05:06:07.874Z,7.93
2017-12-21T05:07:07.887Z,8.02
2017-12-21T05:08:07.900Z,7.92
2017-12-21T05:09:07.917Z,8.01
2017-12-21T05:10:07.929Z,7.95
2017-12-21T05:11:07.941Z,7.98
2017-12-21T05:12:07.957Z,8.00
2017-12-21T05:13:07.971Z,7.95
2017-12-21T05:14:07.986Z,7.97
2017-12-21T05:15:08.001Z,8.04
2017-12-21T05:16:08.013Z,8.00
2017-12-21T05:17:08.028Z,8.05
2017-12-21T05:18:08.040Z,8.10
2017-12-21T05:19:08.055Z,8.07
2017-12-21T05:20:08.069Z,8.01
2017-12-21T05:21:08.087Z,7.97
2017-12-21T05:22:08.096Z,8.00
2017-12-21T05:23:08.110Z,8.01
2017-12-21T05:24:08.123Z,7.95
2017-12-21T05:25:08.138Z,8.05
2017-12-21T05:26:08.152Z,8.10
2017-12-21T05:27:08.164Z,8.02
2017-12-21T05:28:08.191Z,8.02
2017-12-21T05:29:08.196Z,8.05
2017-12-21T05:30:08.208Z,8.04
2017-12-21T05:31:08.223Z,8.02
2017-12-21T05:32:08.238Z,8.02
2017-12-21T05:33:08.251Z,8.00
2017-12-21T05:34:08.265Z,8.04
2017-12-21T05:35:08.279Z,8.05
2017-12-21T05:36:08.294Z,8.02
2017-12-21T05:37:08.308Z,8.01
2017-12-21T05:38:08.320Z,8.02
2017-12-21T05:39:08.335Z,8.05
2017-12-21T05:40:08.349Z,8.00
2017-12-21T05:41:08.362Z,8.00
2017-12-21T05:42:08.377Z,8.02
2017-12-21T05:43:08.389Z,8.01
2017-12-21T05:44:08.404Z,8.08
2017-12-21T05:45:08.418Z,8.02
2017-12-21T05:46:08.442Z,8.02
2017-12-21T05:47:08.446Z,8.02
2017-12-21T05:48:08.459Z,8.04
2017-12-21T05:49:08.476Z,8.05
2017-12-21T05:50:08.490Z,8.08
2017-12-21T05:51:08.549Z,8.04
2017-12-21T05:52:08.516Z,8.02
2017-12-21T05:53:08.537Z,8.04
2017-12-21T05:54:08.546Z,8.05
2017-12-21T05:55:08.558Z,8.04
2017-12-21T05:56:08.572Z,8.05
2017-12-21T05:57:08.587Z,8.04
2017-12-21T05:58:08.601Z,8.05
2017-12-21T05:59:08.619Z,8.05
2017-12-21T06:00:08.630Z,8.07
2017-12-21T06:01:08.645Z,8.08
2017-12-21T06:02:08.658Z,8.02
2017-12-21T06:03:08.674Z,8.04
2017-12-21T06:04:08.684Z,8.08
2017-12-21T06:05:08.700Z,8.04
2017-12-21T06:06:08.713Z,8.11
2017-12-21T06:07:08.727Z,8.10
2017-12-21T06:08:08.743Z,8.02
2017-12-21T06:09:08.756Z,8.05
2017-12-21T06:10:08.769Z,8.04
2017-12-21T06:11:08.782Z,8.02
2017-12-21T06:12:08.796Z,8.07
2017-12-21T06:13:08.817Z,8.05
2017-12-21T06:14:08.825Z,8.07
2017-12-21T06:15:08.840Z,8.08
2017-12-21T06:16:08.853Z,8.10
2017-12-21T06:17:08.867Z,8.04
2017-12-21T06:18:08.883Z,8.00
2017-12-21T06:19:08.897Z,8.07
2017-12-21T06:20:08.910Z,8.00
2017-12-21T06:21:08.928Z,8.01
2017-12-21T06:22:08.943Z,8.04
2017-12-21T06:23:08.955Z,8.02
2017-12-21T06:24:09.010Z,8.05
2017-12-21T06:25:08.980Z,8.02
2017-12-21T06:26:08.995Z,8.07
2017-12-21T06:27:09.011Z,8.10
2017-12-21T06:28:09.020Z,8.02
2017-12-21T06:29:09.040Z,8.08
2017-12-21T06:30:09.055Z,8.05
2017-12-21T06:31:09.063Z,8.05
2017-12-21T06:32:09.095Z,8.08
2017-12-21T06:33:09.102Z,8.10
2017-12-21T06:34:09.105Z,8.07
2017-12-21T06:35:09.121Z,8.01
2017-12-21T06:36:09.134Z,8.04
2017-12-21T06:37:09.148Z,8.00
2017-12-21T06:38:09.165Z,7.97
2017-12-21T06:39:09.174Z,8.04
2017-12-21T06:40:09.190Z,8.07
2017-12-21T06:41:09.264Z,8.02
2017-12-21T06:42:09.220Z,8.04
2017-12-21T06:43:09.231Z,8.07
2017-12-21T06:44:09.251Z,8.02
2017-12-21T06:45:09.265Z,8.10
2017-12-21T06:46:09.275Z,8.15
2017-12-21T06:47:09.337Z,8.07
2017-12-21T06:48:09.305Z,8.00
2017-12-21T06:49:09.315Z,8.10
2017-12-21T06:50:09.339Z,8.08
2017-12-21T06:51:09.342Z,8.11
2017-12-21T06:52:09.359Z,8.15
2017-12-21T06:53:09.376Z,8.12
2017-12-21T06:54:09.394Z,8.05
2017-12-21T06:55:09.400Z,8.20
2017-12-21T06:56:09.414Z,8.11
2017-12-21T06:57:09.430Z,8.18
2017-12-21T06:58:09.450Z,8.11
2017-12-21T06:59:09.454Z,8.11
2017-12-21T07:00:09.470Z,8.11
2017-12-21T07:01:09.485Z,8.08
2017-12-21T07:02:09.501Z,8.11
2017-12-21T07:03:09.515Z,8.08
2017-12-21T07:04:09.528Z,8.18
2017-12-21T07:05:09.539Z,8.20
2017-12-21T07:06:09.553Z,8.19
2017-12-21T07:07:09.567Z,8.19
2017-12-21T07:08:09.581Z,8.16
2017-12-21T07:09:09.599Z,8.22
2017-12-21T07:10:09.618Z,8.11
2017-12-21T07:11:09.645Z,8.11
2017-12-21T07:12:09.640Z,8.19
2017-12-21T07:13:09.658Z,8.16
2017-12-21T07:14:09.666Z,8.12
2017-12-21T07:15:09.682Z,8.08
2017-12-21T07:16:09.695Z,8.12
2017-12-21T07:17:09.707Z,8.18
2017-12-21T07:18:09.724Z,8.16
2017-12-21T07:19:09.745Z,8.22
2017-12-21T07:20:09.750Z,8.18
2017-12-21T07:21:09.766Z,8.15
2017-12-21T07:22:09.785Z,8.18
2017-12-21T07:23:09.798Z,8.18
2017-12-21T07:24:09.807Z,8.19
2017-12-21T07:25:09.824Z,8.15
2017-12-21T07:26:09.843Z,8.15
2017-12-21T07:27:09.854Z,8.08
2017-12-21T07:28:09.861Z,8.07
2017-12-21T07:29:09.877Z,7.97
2017-12-21T07:30:09.924Z,8.16
2017-12-21T07:31:09.907Z,8.22
2017-12-21T07:32:09.922Z,8.02
2017-12-21T07:33:09.932Z,8.04
2017-12-21T07:34:09.945Z,8.07
2017-12-21T07:35:09.960Z,8.08
2017-12-21T07:36:09.975Z,8.02
2017-12-21T07:37:09.989Z,8.11
2017-12-21T07:38:10.005Z,8.05
2017-12-21T07:39:10.016Z,8.16
2017-12-21T07:40:10.028Z,8.12
2017-12-21T07:41:10.043Z,8.15
2017-12-21T07:42:10.060Z,8.16
2017-12-21T07:43:10.073Z,8.16
2017-12-21T07:44:10.097Z,8.18
2017-12-21T07:45:10.106Z,8.18
2017-12-21T07:46:10.115Z,8.20
2017-12-21T07:47:10.128Z,8.22
2017-12-21T07:48:10.143Z,8.20
2017-12-21T07:49:10.817Z,8.18
2017-12-21T07:50:10.167Z,8.20
2017-12-21T07:51:10.184Z,8.16
2017-12-21T07:52:10.215Z,8.18
2017-12-21T07:53:10.209Z,8.12
2017-12-21T07:54:10.244Z,8.19
2017-12-21T07:55:10.235Z,8.19
2017-12-21T07:56:10.255Z,8.19
2017-12-21T07:57:10.280Z,8.16
2017-12-21T07:58:10.282Z,8.18
2017-12-21T07:59:10.292Z,8.16
2017-12-21T08:00:10.308Z,8.25
2017-12-21T08:01:10.324Z,8.20
2017-12-21T08:02:10.335Z,8.20
2017-12-21T08:03:10.354Z,8.23
2017-12-21T08:05:10.377Z,8.22
2017-12-21T08:06:10.393Z,8.26
2017-12-21T08:07:10.404Z,8.19
2017-12-21T08:08:10.419Z,8.19
2017-12-21T08:09:10.437Z,8.18
2017-12-21T08:10:10.449Z,8.19
2017-12-21T08:11:10.462Z,8.20
2017-12-21T08:12:10.474Z,8.18
2017-12-21T08:13:10.527Z,8.25
2017-12-21T08:14:10.506Z,8.18
2017-12-21T08:15:10.517Z,8.20
2017-12-21T08:16:10.531Z,8.30
2017-12-21T08:17:10.546Z,8.34
2017-12-21T08:18:10.561Z,8.33
2017-12-21T08:19:10.957Z,8.34
2017-12-21T08:20:10.590Z,8.37
2017-12-21T08:21:10.603Z,8.36
2017-12-21T08:22:10.620Z,8.38
2017-12-21T08:23:10.634Z,8.33
2017-12-21T08:24:10.648Z,8.34
2017-12-21T08:25:10.715Z,8.36
2017-12-21T08:26:10.676Z,8.40
2017-12-21T08:27:10.698Z,8.38
2017-12-21T08:28:10.709Z,8.37
2017-12-21T08:29:10.718Z,8.40
2017-12-21T08:30:10.733Z,8.37
2017-12-21T08:31:10.747Z,8.43
2017-12-21T08:32:10.974Z,8.38
2017-12-21T08:33:10.776Z,8.38
2017-12-21T08:34:10.791Z,8.37
2017-12-21T08:35:11.003Z,8.45
2017-12-21T08:36:10.818Z,8.43
2017-12-21T08:37:10.834Z,8.40
2017-12-21T08:38:10.852Z,8.48
2017-12-21T08:39:10.864Z,8.40
2017-12-21T08:40:10.877Z,8.41
2017-12-21T08:41:10.890Z,8.41
2017-12-21T08:42:10.988Z,8.50
2017-12-21T08:43:10.919Z,8.40
2017-12-21T08:44:10.934Z,8.44
2017-12-21T08:45:10.980Z,8.36
2017-12-21T08:47:10.975Z,8.38
2017-12-21T08:48:11.027Z,8.40
2017-12-21T08:49:11.007Z,8.37
2017-12-21T08:50:11.021Z,8.38
2017-12-21T08:51:11.049Z,8.41
2017-12-21T08:52:11.047Z,8.41
2017-12-21T08:53:11.063Z,8.41
2017-12-21T08:54:11.078Z,8.40
2017-12-21T08:55:11.090Z,8.41
2017-12-21T08:56:11.105Z,8.44
2017-12-21T08:57:11.120Z,8.43
2017-12-21T08:58:11.132Z,8.43
2017-12-21T08:59:11.151Z,8.30
2017-12-21T09:00:11.164Z,8.48
2017-12-21T09:01:11.191Z,8.37
2017-12-21T09:02:11.190Z,8.52
2017-12-21T09:03:11.208Z,8.38
2017-12-21T09:04:11.223Z,8.53
2017-12-21T09:05:11.232Z,8.50
2017-12-21T09:06:11.246Z,8.50
2017-12-21T09:07:11.263Z,8.50
2017-12-21T09:08:11.295Z,8.50
2017-12-21T09:09:11.292Z,8.38
2017-12-21T09:10:11.305Z,8.44
2017-12-21T09:11:11.625Z,8.50
2017-12-21T09:12:11.335Z,8.50
2017-12-21T09:13:11.467Z,8.50
2017-12-21T09:14:11.367Z,8.55
2017-12-21T09:15:11.381Z,8.44
2017-12-21T09:16:11.408Z,8.53
2017-12-21T09:17:11.408Z,8.47
2017-12-21T09:18:11.441Z,8.48
2017-12-21T09:19:11.436Z,8.50
2017-12-21T09:20:11.456Z,8.52
2017-12-21T09:21:11.475Z,8.59
2017-12-21T09:22:11.484Z,8.50
2017-12-21T09:23:11.492Z,8.50
2017-12-21T09:24:11.508Z,8.47
2017-12-21T09:25:11.526Z,8.44
2017-12-21T09:26:11.537Z,8.50
2017-12-21T09:27:11.552Z,8.50
2017-12-21T09:28:11.564Z,8.43
2017-12-21T09:29:11.579Z,8.52
2017-12-21T09:30:11.597Z,8.44
2017-12-21T09:31:11.607Z,8.53
2017-12-21T09:32:11.625Z,8.53
2017-12-21T09:33:11.636Z,8.56
2017-12-21T09:34:11.651Z,8.56
2017-12-21T09:35:11.664Z,8.52
2017-12-21T09:36:11.733Z,8.44
2017-12-21T09:37:11.693Z,8.52
2017-12-21T09:38:11.708Z,8.50
2017-12-21T09:39:11.777Z,8.52
2017-12-21T09:40:11.754Z,8.55
2017-12-21T09:41:11.751Z,8.56
2017-12-21T09:42:11.766Z,8.52
2017-12-21T09:43:11.779Z,8.61
2017-12-21T09:44:11.795Z,8.61
2017-12-21T09:45:11.807Z,8.55
2017-12-21T09:46:11.897Z,8.56
2017-12-21T09:47:11.837Z,8.61
2017-12-21T09:48:11.852Z,8.55
2017-12-21T09:49:11.868Z,8.53
2017-12-21T09:50:11.882Z,8.55
2017-12-21T09:51:11.898Z,8.55
2017-12-21T09:52:11.938Z,8.55
2017-12-21T09:53:11.924Z,8.55
2017-12-21T09:54:11.938Z,8.58
2017-12-21T09:55:12.054Z,8.58
2017-12-21T09:56:11.967Z,8.55
2017-12-21T09:57:11.980Z,8.52
2017-12-21T09:58:11.993Z,8.62
2017-12-21T09:59:12.046Z,8.62
2017-12-21T10:00:12.031Z,8.59
2017-12-21T10:01:12.067Z,8.61
2017-12-21T10:02:12.052Z,8.59
2017-12-21T10:03:12.066Z,8.59
2017-12-21T10:04:12.082Z,8.62
2017-12-21T10:05:12.099Z,8.65
2017-12-21T10:06:12.110Z,8.62
2017-12-21T10:07:12.777Z,8.59
2017-12-21T10:08:12.137Z,8.62
2017-12-21T10:09:12.169Z,8.59
2017-12-21T10:10:12.170Z,8.62
2017-12-21T10:11:12.181Z,8.59
2017-12-21T10:12:12.196Z,8.59
2017-12-21T10:13:12.211Z,8.56
2017-12-21T10:14:12.224Z,8.58
2017-12-21T10:15:12.245Z,8.58
2017-12-21T10:16:12.257Z,8.53
2017-12-21T10:17:12.271Z,8.55
2017-12-21T10:18:12.280Z,8.56
2017-12-21T10:19:12.294Z,8.53
2017-12-21T10:20:12.308Z,8.55
2017-12-21T10:21:12.897Z,8.56
2017-12-21T10:22:12.342Z,8.63
2017-12-21T10:23:12.390Z,8.61
2017-12-21T10:24:12.363Z,8.55
2017-12-21T10:25:12.386Z,8.56
2017-12-21T10:26:12.396Z,8.58
2017-12-21T10:27:12.406Z,8.59
2017-12-21T10:28:12.421Z,8.50
2017-12-21T10:29:12.446Z,8.66
2017-12-21T10:30:12.450Z,8.59
2017-12-21T10:31:12.467Z,8.61
2017-12-21T10:32:12.482Z,8.58
2017-12-21T10:33:12.492Z,8.58
2017-12-21T10:34:12.508Z,8.56
2017-12-21T10:35:12.533Z,8.58
2017-12-21T10:36:12.533Z,8.56
2017-12-21T10:37:12.549Z,8.55
2017-12-21T10:38:12.565Z,8.56
2017-12-21T10:39:12.579Z,8.59
2017-12-21T10:40:12.596Z,8.63
2017-12-21T10:41:12.609Z,8.70
2017-12-21T10:42:12.617Z,8.66
2017-12-21T10:43:12.637Z,8.63
2017-12-21T10:44:12.650Z,8.63
2017-12-21T10:45:12.664Z,8.68
2017-12-21T10:46:12.700Z,8.65
2017-12-21T10:47:12.689Z,8.61
2017-12-21T10:48:12.704Z,8.73
2017-12-21T10:49:12.721Z,8.76
2017-12-21T10:50:12.741Z,8.63
2017-12-21T10:51:12.754Z,8.61
2017-12-21T10:52:12.791Z,8.68
2017-12-21T10:53:12.778Z,8.70
2017-12-21T10:54:12.790Z,8.68
2017-12-21T10:55:12.803Z,8.77
2017-12-21T10:56:12.827Z,8.77
2017-12-21T10:57:12.830Z,8.74
2017-12-21T10:58:12.846Z,8.77
2017-12-21T10:59:12.859Z,8.73
2017-12-21T11:00:12.873Z,8.66
2017-12-21T11:01:12.891Z,8.73
2017-12-21T11:02:12.904Z,8.66
2017-12-21T11:03:12.919Z,8.66
2017-12-21T11:04:12.931Z,8.65
2017-12-21T11:05:12.949Z,8.68
2017-12-21T11:06:12.961Z,8.63
2017-12-21T11:07:12.974Z,8.73
2017-12-21T11:08:12.989Z,8.76
2017-12-21T11:09:13.004Z,8.81
2017-12-21T11:10:13.023Z,8.73
2017-12-21T11:11:13.039Z,8.80
2017-12-21T11:12:13.045Z,8.80
2017-12-21T11:13:13.060Z,8.83
2017-12-21T11:14:13.080Z,8.80
2017-12-21T11:15:13.993Z,8.70
2017-12-21T11:16:13.152Z,8.77
2017-12-21T11:17:13.116Z,8.74
2017-12-21T11:18:13.137Z,8.81
2017-12-21T11:19:13.148Z,8.91
2017-12-21T11:20:13.161Z,8.91
2017-12-21T11:21:13.173Z,8.98
2017-12-21T11:22:13.243Z,8.95
2017-12-21T11:23:13.205Z,8.94
2017-12-21T11:24:13.218Z,8.98
2017-12-21T11:25:13.229Z,9.05
2017-12-21T11:26:13.245Z,8.96
2017-12-21T11:27:13.259Z,8.95
2017-12-21T11:28:13.269Z,9.01
2017-12-21T11:29:13.287Z,9.01
2017-12-21T11:30:13.304Z,9.02
2017-12-21T11:31:13.318Z,8.95
2017-12-21T11:32:13.328Z,8.91
2017-12-21T11:33:13.352Z,8.89
2017-12-21T11:34:13.360Z,8.96
2017-12-21T11:35:13.373Z,8.98
2017-12-21T11:36:13.405Z,8.96
2017-12-21T11:37:13.404Z,8.98
2017-12-21T11:38:13.441Z,8.98
2017-12-21T11:39:13.439Z,8.91
2017-12-21T11:40:13.450Z,8.95
2017-12-21T11:41:13.481Z,8.95
2017-12-21T11:42:13.477Z,8.87
2017-12-21T11:43:13.500Z,8.95
2017-12-21T11:44:13.502Z,9.02
2017-12-21T11:45:13.521Z,9.05
2017-12-21T11:46:13.532Z,8.96
2017-12-21T11:47:13.545Z,9.05
2017-12-21T11:48:13.562Z,9.04
2017-12-21T11:49:13.572Z,9.04
2017-12-21T11:50:13.591Z,9.04
2017-12-21T11:51:13.606Z,9.01
2017-12-21T11:52:13.616Z,9.10
2017-12-21T11:53:13.630Z,9.13
2017-12-21T11:54:13.645Z,9.10
2017-12-21T11:55:13.660Z,9.04
2017-12-21T11:56:13.674Z,9.13
2017-12-21T11:57:13.697Z,9.05
2017-12-21T11:58:13.703Z,9.17
2017-12-21T11:59:13.739Z,9.10
2017-12-21T12:00:13.733Z,9.10
2017-12-21T12:01:13.814Z,9.15
2017-12-21T12:02:13.759Z,9.11
2017-12-21T12:03:13.781Z,9.18
2017-12-21T12:04:13.793Z,9.17
2017-12-21T12:05:13.812Z,9.20
2017-12-21T12:06:13.818Z,9.21
2017-12-21T12:07:13.832Z,9.13
2017-12-21T12:08:13.846Z,9.20
2017-12-21T12:09:13.868Z,9.24
2017-12-21T12:10:13.881Z,9.14
2017-12-21T12:11:13.889Z,9.23
2017-12-21T12:12:13.909Z,9.18
2017-12-21T12:13:13.926Z,9.26
2017-12-21T12:14:13.986Z,9.18
2017-12-21T12:15:13.950Z,9.23
2017-12-21T12:16:13.969Z,9.24
2017-12-21T12:17:13.978Z,9.23
2017-12-21T12:18:13.993Z,9.21
2017-12-21T12:19:14.011Z,9.20
2017-12-21T12:20:14.032Z,9.23
2017-12-21T12:21:14.039Z,9.24
2017-12-21T12:22:14.052Z,9.29
2017-12-21T12:23:14.080Z,9.24
2017-12-21T12:24:14.085Z,9.18
2017-12-21T12:25:14.097Z,9.28
2017-12-21T12:26:14.114Z,9.28
2017-12-21T12:27:14.127Z,9.33
2017-12-21T12:28:14.169Z,9.33
2017-12-21T12:29:14.356Z,9.36
2017-12-21T12:30:14.172Z,9.28
2017-12-21T12:31:15.008Z,9.26
2017-12-21T12:32:14.307Z,9.31
2017-12-21T12:33:14.213Z,9.33
2017-12-21T12:34:14.231Z,9.29
2017-12-21T12:35:14.302Z,9.35
2017-12-21T12:36:14.801Z,9.33
2017-12-21T12:37:14.286Z,9.39
2017-12-21T12:38:14.288Z,9.36
2017-12-21T12:39:14.305Z,9.35
2017-12-21T12:41:14.331Z,9.46
2017-12-21T12:42:14.345Z,9.48
2017-12-21T12:43:14.365Z,9.47
2017-12-21T12:44:14.375Z,9.50
2017-12-21T12:45:14.390Z,9.48
2017-12-21T12:46:14.404Z,9.40
2017-12-21T12:47:14.424Z,9.51
2017-12-21T12:48:14.537Z,9.58
2017-12-21T12:49:14.453Z,9.51
2017-12-21T12:50:14.470Z,9.46
2017-12-21T12:51:14.482Z,9.50
2017-12-21T12:52:14.492Z,9.46
2017-12-21T12:53:14.509Z,9.47
2017-12-21T12:54:14.535Z,9.51
2017-12-21T12:55:14.538Z,9.54
2017-12-21T12:56:14.558Z,9.51
2017-12-21T12:57:14.571Z,9.65
2017-12-21T12:58:14.585Z,9.58
2017-12-21T12:59:14.597Z,9.53
2017-12-21T13:00:14.625Z,9.58
2017-12-21T13:01:14.629Z,9.58
2017-12-21T13:02:14.649Z,9.51
2017-12-21T13:03:14.657Z,9.56
2017-12-21T13:04:14.678Z,9.60
2017-12-21T13:05:14.687Z,9.56
2017-12-21T13:06:14.708Z,9.56
2017-12-21T13:07:14.721Z,9.47
2017-12-21T13:08:14.736Z,9.54
2017-12-21T13:09:14.764Z,9.57
2017-12-21T13:10:15.096Z,9.58
2017-12-21T13:11:14.899Z,9.54
2017-12-21T13:12:14.806Z,9.54
2017-12-21T13:13:14.809Z,9.51
2017-12-21T13:14:14.832Z,9.53
2017-12-21T13:15:14.841Z,9.53
2017-12-21T13:16:14.853Z,9.58
2017-12-21T13:17:15.045Z,9.57
2017-12-21T13:18:14.880Z,9.53
2017-12-21T13:19:14.890Z,9.47
2017-12-21T13:20:14.908Z,9.57
2017-12-21T13:21:14.923Z,9.57
2017-12-21T13:22:14.935Z,9.58